Time;durP1;ratioP1;P1;durP2;ratioP2;P2;SDS_P1;SDS_P2;PMS_P1;PMS_P2;Temp;Humidity;BMP_temperature;BMP_pressure;BME280_temperature;BME280_humidity;BME280_pressure;Samples;Min_cycle;Max_cycle;Signal;HPM_P1;HPM_P2
2023/01/14 00:02:01;;;;;;;67.97;50.30;;;14.40;73.30;;;;;;4930208;28;95343;-52
2023/01/14 00:04:27;;;;;;;67.63;50.38;;;14.50;73.10;;;;;;4921328;28;96462;-52
2023/01/14 00:06:52;;;;;;;69.72;50.20;;;14.50;73.10;;;;;;4919777;28;96778;-52
2023/01/14 00:09:18;;;;;;;69.25;49.75;;;14.40;73.90;;;;;;4922029;28;96383;-51
2023/01/14 00:11:47;;;;;;;69.75;49.83;;;14.40;73.10;;;;;;4919853;28;95363;-51
2023/01/14 00:14:42;;;;;;;67.68;49.75;;;14.40;73.10;;;;;;4930149;28;96654;-50
2023/01/14 00:17:07;;;;;;;69.95;50.47;;;14.40;73.30;;;;;;4919457;28;96776;-53
2023/01/14 00:19:33;;;;;;;69.97;49.65;;;14.50;73.20;;;;;;4928836;28;95326;-49
2023/01/14 00:21:59;;;;;;;69.80;49.53;;;14.40;73.10;;;;;;4926060;28;96537;-54
2023/01/14 00:24:24;;;;;;;67.65;49.60;;;14.40;73.30;;;;;;4923085;28;94549;-52
2023/01/14 00:26:53;;;;;;;70.28;50.13;;;14.40;73.10;;;;;;4927813;28;96166;-53
2023/01/14 00:29:21;;;;;;;67.10;50.03;;;14.40;73.20;;;;;;4926726;28;100700;-51
2023/01/14 00:31:47;;;;;;;66.97;49.75;;;14.40;73.30;;;;;;4925975;28;100590;-53
2023/01/14 00:34:14;;;;;;;67.93;49.97;;;14.40;73.00;;;;;;4925502;28;95873;-52
2023/01/14 00:36:41;;;;;;;68.88;49.95;;;14.40;73.20;;;;;;4923521;28;96250;-54
2023/01/14 00:39:07;;;;;;;70.32;49.60;;;14.40;73.10;;;;;;4940040;28;95264;-52
2023/01/14 00:41:33;;;;;;;68.70;50.15;;;14.40;73.20;;;;;;4923630;28;96675;-52
2023/01/14 00:43:59;;;;;;;68.72;49.97;;;14.40;73.20;;;;;;4926736;28;96466;-54
2023/01/14 00:46:31;;;;;;;69.95;49.80;;;14.40;73.20;;;;;;4924176;28;95582;-47
2023/01/14 00:49:00;;;;;;;65.03;49.22;;;14.40;73.30;;;;;;4928945;28;94504;-53
2023/01/14 00:51:27;;;;;;;71.13;49.17;;;14.40;73.20;;;;;;4917301;28;98146;-53
2023/01/14 00:53:53;;;;;;;66.95;50.30;;;14.40;73.10;;;;;;4926572;28;95280;-48
2023/01/14 00:56:20;;;;;;;69.15;49.75;;;14.40;73.10;;;;;;4924372;28;97539;-52
2023/01/14 00:58:46;;;;;;;67.82;49.67;;;14.40;73.10;;;;;;4920772;28;96151;-52
2023/01/14 01:01:13;;;;;;;67.45;50.17;;;14.40;73.10;;;;;;4917959;28;94703;-53
2023/01/14 01:03:41;;;;;;;66.95;49.95;;;14.30;73.20;;;;;;4927769;28;95501;-51
2023/01/14 01:06:07;;;;;;;65.55;49.40;;;14.30;73.10;;;;;;4925169;28;96373;-53
2023/01/14 01:08:33;;;;;;;68.90;50.10;;;14.40;73.10;;;;;;4926991;28;95044;-51
2023/01/14 01:10:59;;;;;;;67.40;49.58;;;14.40;73.30;;;;;;4929392;28;95535;-51
2023/01/14 01:13:26;;;;;;;67.00;49.90;;;14.40;73.10;;;;;;4925539;28;94624;-49
2023/01/14 01:15:57;;;;;;;68.88;49.80;;;14.40;73.10;;;;;;4930353;28;97255;-52
2023/01/14 01:18:23;;;;;;;70.13;50.05;;;14.30;73.10;;;;;;4919283;28;97153;-48
2023/01/14 01:20:49;;;;;;;67.25;49.97;;;14.40;73.30;;;;;;4922183;28;97669;-48
2023/01/14 01:23:15;;;;;;;68.40;49.95;;;14.40;73.30;;;;;;4923281;28;96108;-50
2023/01/14 01:25:41;;;;;;;65.22;49.33;;;14.40;73.20;;;;;;4921653;28;94701;-52
2023/01/14 01:28:07;;;;;;;68.00;49.45;;;14.40;73.20;;;;;;4923741;28;96864;-51
2023/01/14 01:30:33;;;;;;;66.30;49.85;;;14.30;73.20;;;;;;4929099;28;96991;-52
2023/01/14 01:33:00;;;;;;;69.03;49.85;;;14.40;73.30;;;;;;4927087;28;95551;-50
2023/01/14 01:35:26;;;;;;;66.97;49.65;;;14.30;73.10;;;;;;4929930;28;95743;-46
2023/01/14 01:37:52;;;;;;;68.15;49.67;;;14.40;73.10;;;;;;4923137;28;94487;-52
2023/01/14 01:40:18;;;;;;;64.70;49.58;;;14.40;73.90;;;;;;4916988;28;95237;-46
2023/01/14 01:42:56;;;;;;;66.47;49.67;;;14.30;73.10;;;;;;4926785;28;96223;-49
2023/01/14 01:45:46;;;;;;;67.28;49.42;;;14.30;73.00;;;;;;4918488;28;99457;-49
2023/01/14 01:48:12;;;;;;;65.45;49.85;;;14.30;73.10;;;;;;4920637;28;95101;-50
2023/01/14 01:50:38;;;;;;;64.82;49.40;;;14.40;73.20;;;;;;4924394;28;95352;-53
2023/01/14 01:53:06;;;;;;;67.80;49.60;;;14.40;73.10;;;;;;4923973;28;95069;-47
2023/01/14 01:55:36;;;;;;;67.30;49.25;;;14.40;73.10;;;;;;4923200;28;95651;-51
2023/01/14 01:58:03;;;;;;;65.75;49.25;;;14.40;73.10;;;;;;4918810;28;95154;-50
2023/01/14 02:00:29;;;;;;;67.57;49.33;;;14.30;73.10;;;;;;4927040;28;96307;-50
2023/01/14 02:03:02;;;;;;;67.75;49.50;;;14.30;73.00;;;;;;4930550;28;95201;-52
2023/01/14 02:05:29;;;;;;;66.47;49.75;;;14.30;73.20;;;;;;4935493;28;95287;-52
2023/01/14 02:07:57;;;;;;;66.75;49.28;;;14.30;73.10;;;;;;4925187;28;94682;-53
2023/01/14 02:10:38;;;;;;;66.85;49.65;;;14.30;73.00;;;;;;4921050;28;98002;-52
2023/01/14 02:13:40;;;;;;;71.53;49.88;;;14.30;73.10;;;;;;4919585;28;95474;-50
2023/01/14 02:16:20;;;;;;;67.53;49.67;;;14.30;73.20;;;;;;4921102;28;95039;-51
2023/01/14 02:19:17;;;;;;;67.70;49.75;;;14.30;73.10;;;;;;4924696;28;94979;-51
2023/01/14 02:22:27;;;;;;;69.43;49.10;;;14.30;73.10;;;;;;4900868;28;96110;-52
2023/01/14 02:24:56;;;;;;;68.32;50.00;;;14.30;73.00;;;;;;4926996;28;96050;-52
2023/01/14 02:27:47;;;;;;;66.40;50.30;;;14.30;73.00;;;;;;4929069;28;95229;-49
2023/01/14 02:30:41;;;;;;;67.47;49.65;;;14.30;73.20;;;;;;4922829;28;94737;-51
2023/01/14 02:33:17;;;;;;;66.57;49.15;;;14.30;73.10;;;;;;4928388;28;95325;-51
2023/01/14 02:35:49;;;;;;;65.95;49.20;;;14.30;73.10;;;;;;4921380;28;96462;-51
2023/01/14 02:38:23;;;;;;;65.72;49.38;;;14.30;73.00;;;;;;4920282;28;97313;-53
2023/01/14 02:41:09;;;;;;;65.15;49.75;;;14.30;73.10;;;;;;4927780;28;95033;-51
2023/01/14 02:44:10;;;;;;;65.68;49.35;;;14.30;73.20;;;;;;4930327;28;95481;-50
2023/01/14 02:46:48;;;;;;;67.15;49.22;;;14.30;73.30;;;;;;4923101;28;96375;-49
2023/01/14 02:49:22;;;;;;;66.53;49.55;;;14.20;73.30;;;;;;4928104;28;95373;-53
2023/01/14 02:51:48;;;;;;;64.88;49.00;;;14.20;73.20;;;;;;4916276;28;95260;-52
2023/01/14 02:54:16;;;;;;;65.93;49.58;;;14.30;73.20;;;;;;4919314;28;95011;-51
2023/01/14 02:56:43;;;;;;;67.00;49.67;;;14.20;73.10;;;;;;4920918;28;98438;-52
2023/01/14 02:59:30;;;;;;;66.05;49.38;;;14.20;73.20;;;;;;4929607;28;94638;-53
2023/01/14 03:02:22;;;;;;;67.30;49.30;;;14.20;73.20;;;;;;4931904;28;95132;-52
2023/01/14 03:05:08;;;;;;;65.70;49.63;;;14.20;73.30;;;;;;4927940;28;96248;-51
2023/01/14 03:07:50;;;;;;;66.03;49.53;;;14.20;73.20;;;;;;4922908;28;100580;-52
2023/01/14 03:10:29;;;;;;;65.80;49.20;;;14.20;73.20;;;;;;4925324;28;95151;-51
2023/01/14 03:13:09;;;;;;;67.93;49.50;;;14.20;73.20;;;;;;4917110;28;95435;-52
2023/01/14 03:16:08;;;;;;;66.80;49.75;;;14.20;73.10;;;;;;4918457;28;96326;-49
2023/01/14 03:18:43;;;;;;;64.63;49.40;;;14.20;73.20;;;;;;4921631;28;95278;-52
2023/01/14 03:21:15;;;;;;;64.53;49.17;;;14.20;73.20;;;;;;4926163;28;94601;-52
2023/01/14 03:23:53;;;;;;;65.95;49.47;;;14.20;73.20;;;;;;4916308;28;95670;-48
2023/01/14 03:26:20;;;;;;;66.07;49.58;;;14.20;73.20;;;;;;4925111;28;95609;-51
2023/01/14 03:28:47;;;;;;;65.47;49.28;;;14.20;73.20;;;;;;4930073;28;96260;-51
2023/01/14 03:31:16;;;;;;;66.18;49.60;;;14.20;73.20;;;;;;4915093;28;96060;-49
2023/01/14 03:33:51;;;;;;;66.95;49.45;;;14.20;73.10;;;;;;4917263;28;95322;-49
2023/01/14 03:36:19;;;;;;;65.47;49.35;;;14.20;73.10;;;;;;4910368;28;96265;-51
2023/01/14 03:38:58;;;;;;;65.78;49.60;;;14.20;73.10;;;;;;4924579;28;95246;-52
2023/01/14 03:44:19;;;;;;;67.95;49.63;;;14.20;73.20;;;;;;4924229;28;96522;-48
2023/01/14 03:46:44;;;;;;;66.65;49.65;;;14.20;73.00;;;;;;4919279;28;96627;-51
2023/01/14 03:49:10;;;;;;;66.10;49.33;;;14.20;73.10;;;;;;4922786;28;94848;-48
2023/01/14 03:52:11;;;;;;;66.13;49.50;;;14.20;73.20;;;;;;4922643;28;95246;-49
2023/01/14 03:54:45;;;;;;;64.82;49.65;;;14.20;73.20;;;;;;4920937;28;101256;-49
2023/01/14 03:57:21;;;;;;;66.53;49.58;;;14.20;73.10;;;;;;4923680;28;98166;-50
2023/01/14 04:00:05;;;;;;;67.38;49.67;;;14.20;73.10;;;;;;4929143;28;96017;-52
2023/01/14 04:02:32;;;;;;;66.32;49.40;;;14.20;73.10;;;;;;4924678;28;95342;-53
2023/01/14 04:04:59;;;;;;;65.55;49.55;;;14.20;72.90;;;;;;4921043;28;95120;-50
2023/01/14 04:07:25;;;;;;;66.38;49.63;;;14.20;73.00;;;;;;4921840;28;96375;-49
2023/01/14 04:09:51;;;;;;;66.13;49.08;;;14.20;73.00;;;;;;4922103;28;96437;-49
2023/01/14 04:12:16;;;;;;;65.75;49.35;;;14.20;73.10;;;;;;4910010;28;97565;-53
2023/01/14 04:17:26;;;;;;;66.13;49.28;;;14.20;73.10;;;;;;4922423;28;95272;-52
2023/01/14 04:19:52;;;;;;;64.63;49.05;;;14.20;73.10;;;;;;4928453;28;96144;-46
2023/01/14 04:22:18;;;;;;;65.50;49.45;;;14.20;72.90;;;;;;4918535;28;95867;-53
2023/01/14 04:24:43;;;;;;;64.43;49.40;;;14.20;73.00;;;;;;4927957;28;94916;-52
2023/01/14 04:27:09;;;;;;;67.50;49.47;;;14.20;72.90;;;;;;4912296;28;98036;-55
2023/01/14 04:29:35;;;;;;;65.80;49.25;;;14.20;72.90;;;;;;4886867;28;100096;-51
2023/01/14 04:32:00;;;;;;;66.07;49.63;;;14.20;72.90;;;;;;4901107;28;96527;-47
2023/01/14 04:34:26;;;;;;;65.65;49.15;;;14.20;72.90;;;;;;4900880;28;100552;-53
2023/01/14 04:36:52;;;;;;;65.07;49.05;;;14.20;72.90;;;;;;4903837;28;95758;-49
2023/01/14 04:39:17;;;;;;;67.40;49.60;;;14.20;72.90;;;;;;4901246;28;95607;-52
2023/01/14 04:44:27;;;;;;;64.35;49.40;;;14.20;72.90;;;;;;4898042;28;94830;-47
2023/01/14 04:46:53;;;;;;;65.35;49.53;;;14.20;72.90;;;;;;4909699;28;95937;-51
2023/01/14 04:49:18;;;;;;;66.72;49.38;;;14.20;73.00;;;;;;4910134;28;95997;-51
2023/01/14 04:51:44;;;;;;;64.80;48.95;;;14.20;72.90;;;;;;4896735;28;95213;-49
2023/01/14 04:54:10;;;;;;;65.45;49.30;;;14.20;73.00;;;;;;4907165;28;95061;-51
2023/01/14 04:56:35;;;;;;;65.28;49.47;;;14.20;72.90;;;;;;4906714;28;95365;-47
2023/01/14 04:59:03;;;;;;;65.43;49.08;;;14.20;72.90;;;;;;4908336;28;94788;-50
2023/01/14 05:01:29;;;;;;;65.63;49.33;;;14.20;73.00;;;;;;4902859;28;95142;-52
2023/01/14 05:03:58;;;;;;;64.07;49.10;;;14.20;73.00;;;;;;4904374;28;94733;-52
2023/01/14 05:06:25;;;;;;;64.15;49.33;;;14.20;73.00;;;;;;4906468;28;95427;-50
2023/01/14 05:08:51;;;;;;;64.57;48.92;;;14.20;72.90;;;;;;4910683;28;96408;-51
2023/01/14 05:11:16;;;;;;;66.75;49.25;;;14.20;72.90;;;;;;4898625;28;97368;-53
2023/01/14 05:13:42;;;;;;;64.90;49.15;;;14.20;72.90;;;;;;4914066;28;95009;-49
2023/01/14 05:16:08;;;;;;;67.85;49.60;;;14.20;73.00;;;;;;4909544;28;96321;-48
2023/01/14 05:18:33;;;;;;;64.47;49.20;;;14.20;72.80;;;;;;4907889;28;95226;-49
2023/01/14 05:20:59;;;;;;;65.13;49.47;;;14.20;72.90;;;;;;4913180;28;94761;-46
2023/01/14 05:23:24;;;;;;;64.03;49.67;;;14.20;72.90;;;;;;4906019;28;95326;-49
2023/01/14 05:25:50;;;;;;;67.00;49.50;;;14.20;73.00;;;;;;4910821;28;94900;-52
2023/01/14 05:28:18;;;;;;;66.68;49.45;;;14.20;72.90;;;;;;4908401;28;94580;-52
2023/01/14 05:30:44;;;;;;;66.60;49.53;;;14.20;72.90;;;;;;4925067;28;95531;-49
2023/01/14 05:33:10;;;;;;;64.85;49.53;;;14.20;72.90;;;;;;4915168;28;95130;-51
2023/01/14 05:35:36;;;;;;;65.35;49.53;;;14.20;72.90;;;;;;4921661;28;97329;-50
2023/01/14 05:38:03;;;;;;;65.03;49.35;;;14.20;72.90;;;;;;4913872;28;95550;-49
2023/01/14 05:40:29;;;;;;;66.10;49.67;;;14.20;72.80;;;;;;4924757;28;95685;-47
2023/01/14 05:45:49;;;;;;;65.13;48.90;;;14.20;73.00;;;;;;4932221;28;94679;-49
2023/01/14 05:48:16;;;;;;;64.88;49.10;;;14.20;72.90;;;;;;4915436;28;96307;-47
2023/01/14 05:50:42;;;;;;;64.47;49.33;;;14.20;72.80;;;;;;4924325;28;95751;-49
2023/01/14 05:53:08;;;;;;;64.55;49.75;;;14.20;72.80;;;;;;4921013;28;98199;-52
2023/01/14 05:55:35;;;;;;;65.05;49.40;;;14.20;72.80;;;;;;4924940;28;94950;-47
2023/01/14 05:58:03;;;;;;;64.82;49.30;;;14.20;72.80;;;;;;4923660;28;95694;-51
2023/01/14 06:06:22;;;;;;;65.60;49.40;;;14.20;72.70;;;;;;4917889;28;95380;-52
2023/01/14 06:08:53;;;;;;;64.47;49.42;;;14.20;72.90;;;;;;4923690;28;95376;-47
2023/01/14 06:11:23;;;;;;;64.40;49.45;;;14.20;72.90;;;;;;4927302;28;94898;-48
2023/01/14 06:13:51;;;;;;;65.55;49.28;;;14.20;72.80;;;;;;4925580;28;94954;-50
2023/01/14 06:16:18;;;;;;;63.88;49.15;;;14.20;72.90;;;;;;4924776;28;97621;-52
2023/01/14 06:18:44;;;;;;;63.42;48.80;;;14.20;72.80;;;;;;4922565;28;95854;-51
2023/01/14 06:21:16;;;;;;;64.93;49.35;;;14.20;72.90;;;;;;4930167;28;95317;-49
2023/01/14 06:23:42;;;;;;;64.90;49.47;;;14.20;72.90;;;;;;4925985;28;98598;-48
2023/01/14 06:26:10;;;;;;;64.28;48.83;;;14.20;72.90;;;;;;4922701;28;96131;-50
2023/01/14 06:28:36;;;;;;;67.55;49.75;;;14.20;72.80;;;;;;4920018;28;95250;-47
2023/01/14 06:31:08;;;;;;;63.60;49.25;;;14.30;72.80;;;;;;4927305;28;94880;-49
2023/01/14 06:33:34;;;;;;;66.15;48.83;;;14.20;72.80;;;;;;4918663;28;95444;-49
2023/01/14 06:36:00;;;;;;;63.95;48.90;;;14.20;72.80;;;;;;4926372;28;94933;-50
2023/01/14 06:38:26;;;;;;;64.70;48.92;;;14.30;72.90;;;;;;4924928;28;95135;-51
2023/01/14 06:40:51;;;;;;;64.10;49.75;;;14.30;72.80;;;;;;4926549;28;95664;-51
2023/01/14 06:43:17;;;;;;;63.45;49.08;;;14.20;72.90;;;;;;4919829;28;94583;-47
2023/01/14 06:45:43;;;;;;;65.72;49.45;;;14.20;72.80;;;;;;4929003;28;95134;-49
2023/01/14 06:48:08;;;;;;;63.83;49.00;;;14.30;72.90;;;;;;4931543;28;95209;-48
2023/01/14 06:50:34;;;;;;;64.47;49.15;;;14.20;72.80;;;;;;4921708;28;96241;-49
2023/01/14 06:53:01;;;;;;;63.22;49.20;;;14.30;72.80;;;;;;4918717;28;95263;-47
2023/01/14 06:55:28;;;;;;;63.60;48.88;;;14.30;72.70;;;;;;4918089;28;95866;-48
2023/01/14 06:57:53;;;;;;;64.60;49.13;;;14.30;72.90;;;;;;4926181;28;95836;-47
2023/01/14 07:00:19;;;;;;;64.97;49.45;;;14.30;72.80;;;;;;4921793;28;95666;-48
2023/01/14 07:02:45;;;;;;;64.00;49.35;;;14.30;72.70;;;;;;4924198;28;95341;-50
2023/01/14 07:05:10;;;;;;;63.83;49.15;;;14.30;72.80;;;;;;4926730;28;95901;-48
2023/01/14 07:07:36;;;;;;;62.92;48.88;;;14.30;72.80;;;;;;4925292;28;95122;-49
2023/01/14 07:10:02;;;;;;;64.22;48.83;;;14.30;73.50;;;;;;4924605;28;95118;-48
2023/01/14 07:12:27;;;;;;;63.40;48.95;;;14.30;72.80;;;;;;4925113;28;95167;-48
2023/01/14 07:14:53;;;;;;;63.75;49.05;;;14.30;72.80;;;;;;4920251;28;97999;-48
2023/01/14 07:17:19;;;;;;;63.70;49.05;;;14.30;72.80;;;;;;4918841;28;96073;-48
2023/01/14 07:19:44;;;;;;;64.57;49.10;;;14.30;72.60;;;;;;4918237;28;97536;-53
2023/01/14 07:22:10;;;;;;;63.83;49.00;;;14.30;72.80;;;;;;4926382;28;94776;-48
2023/01/14 07:24:37;;;;;;;63.45;48.90;;;14.30;72.80;;;;;;4937997;28;97882;-49
2023/01/14 07:27:04;;;;;;;63.70;48.92;;;14.30;72.70;;;;;;4920790;28;95292;-47
2023/01/14 07:29:30;;;;;;;64.43;49.30;;;14.30;72.70;;;;;;4917240;28;102061;-47
2023/01/14 07:31:56;;;;;;;64.18;49.17;;;14.30;72.70;;;;;;4925255;28;97165;-48
2023/01/14 07:34:22;;;;;;;63.90;49.20;;;14.30;72.70;;;;;;4920064;28;95148;-49
2023/01/14 07:36:47;;;;;;;64.43;49.08;;;14.30;72.70;;;;;;4917385;28;95249;-52
2023/01/14 07:39:13;;;;;;;64.60;49.45;;;14.30;72.80;;;;;;4919821;28;96339;-50
2023/01/14 07:41:39;;;;;;;63.58;49.30;;;14.30;72.80;;;;;;4912357;28;101342;-51
2023/01/14 07:44:05;;;;;;;63.92;48.42;;;14.30;72.80;;;;;;4930014;28;95392;-49
2023/01/14 07:46:32;;;;;;;63.33;48.92;;;14.30;72.80;;;;;;4912221;28;96831;-47
2023/01/14 07:48:58;;;;;;;65.03;49.25;;;14.30;72.70;;;;;;4923347;28;95124;-51
2023/01/14 07:51:23;;;;;;;65.10;49.10;;;14.30;72.70;;;;;;4912960;28;96360;-48
2023/01/14 07:53:49;;;;;;;64.78;49.53;;;14.30;72.90;;;;;;4917448;28;95862;-51
2023/01/14 07:56:15;;;;;;;64.55;49.42;;;14.30;72.90;;;;;;4911008;28;94823;-51
2023/01/14 07:58:41;;;;;;;63.28;48.55;;;14.30;72.80;;;;;;4919350;28;95174;-48
2023/01/14 08:01:10;;;;;;;63.20;48.70;;;14.30;73.00;;;;;;4919667;28;96745;-50
2023/01/14 08:03:37;;;;;;;64.53;49.17;;;14.30;72.90;;;;;;4917393;28;107195;-50
2023/01/14 08:06:06;;;;;;;63.67;49.00;;;14.30;72.90;;;;;;4924288;28;96430;-51
2023/01/14 08:08:33;;;;;;;63.83;49.08;;;14.30;72.90;;;;;;4923865;28;100506;-50
2023/01/14 08:11:01;;;;;;;65.10;49.08;;;14.30;73.00;;;;;;4925721;28;98110;-49
2023/01/14 08:13:27;;;;;;;64.10;49.25;;;14.30;73.00;;;;;;4919064;28;98594;-46
2023/01/14 08:15:57;;;;;;;63.40;49.10;;;14.40;73.00;;;;;;4916277;28;96517;-51
2023/01/14 08:18:23;;;;;;;63.65;49.05;;;14.30;73.00;;;;;;4926373;28;95035;-50
2023/01/14 08:20:56;;;;;;;65.80;48.83;;;14.40;73.10;;;;;;4911274;28;98537;-50
2023/01/14 08:23:22;;;;;;;66.15;49.08;;;14.30;73.10;;;;;;4925659;28;96154;-50
2023/01/14 08:25:48;;;;;;;63.47;49.38;;;14.30;73.10;;;;;;4925216;28;94855;-47
2023/01/14 08:28:13;;;;;;;63.80;49.00;;;14.30;73.10;;;;;;4922158;28;96433;-51
2023/01/14 08:30:39;;;;;;;63.10;48.78;;;14.30;73.10;;;;;;4914320;28;96271;-48
2023/01/14 08:33:05;;;;;;;64.40;49.03;;;14.30;73.10;;;;;;4921304;28;95609;-52
2023/01/14 08:35:30;;;;;;;63.95;49.03;;;14.30;73.00;;;;;;4916377;28;95306;-47
2023/01/14 08:37:56;;;;;;;64.00;49.10;;;14.30;73.10;;;;;;4912708;28;94790;-50
2023/01/14 08:40:23;;;;;;;66.10;49.30;;;14.30;73.10;;;;;;4933157;28;95168;-51
2023/01/14 08:42:49;;;;;;;122.47;58.38;;;14.30;73.10;;;;;;4920631;28;96041;-66
2023/01/14 08:45:14;;;;;;;68.57;48.42;;;14.40;74.70;;;;;;4914393;28;95852;-64
2023/01/14 08:47:40;;;;;;;68.68;48.17;;;14.50;74.30;;;;;;4914614;28;95991;-60
2023/01/14 08:50:06;;;;;;;68.15;48.38;;;14.60;74.60;;;;;;4910677;28;99319;-58
2023/01/14 08:52:31;;;;;;;66.93;48.35;;;14.70;75.70;;;;;;4918262;28;98364;-63
2023/01/14 08:54:57;;;;;;;71.20;48.85;;;14.70;75.30;;;;;;4917374;28;96198;-64
2023/01/14 08:57:23;;;;;;;78.35;51.13;;;14.70;75.60;;;;;;4918899;28;95284;-65
2023/01/14 08:59:48;;;;;;;82.50;53.72;;;14.70;75.90;;;;;;4913668;28;98088;-64
2023/01/14 09:02:15;;;;;;;82.35;54.60;;;14.70;76.20;;;;;;4922359;28;96535;-65
2023/01/14 09:04:41;;;;;;;91.90;57.78;;;14.70;76.50;;;;;;4922497;28;95661;-61
2023/01/14 09:18:04;;;;;;;107.43;64.45;;;14.70;78.10;;;;;;4921402;28;97570;-62
2023/01/14 09:20:33;;;;;;;102.47;63.45;;;14.70;78.20;;;;;;4918253;28;100022;-59
2023/01/14 09:23:01;;;;;;;102.28;60.88;;;14.70;78.30;;;;;;4908669;28;95297;-62
2023/01/14 09:25:26;;;;;;;93.57;58.65;;;14.70;78.20;;;;;;4916130;28;99820;-64
2023/01/14 09:27:52;;;;;;;92.47;57.53;;;14.80;78.60;;;;;;4918971;28;95858;-64
2023/01/14 09:30:18;;;;;;;88.70;57.28;;;14.90;78.10;;;;;;4930420;28;95202;-64
2023/01/14 09:32:44;;;;;;;90.07;56.25;;;15.00;79.40;;;;;;4911330;28;101845;-64
2023/01/14 09:35:10;;;;;;;90.32;56.30;;;15.00;79.10;;;;;;4924267;28;99667;-63
2023/01/14 09:37:36;;;;;;;88.38;55.72;;;15.10;80.20;;;;;;4927158;28;95822;-60
2023/01/14 09:40:03;;;;;;;93.85;56.75;;;15.00;81.20;;;;;;4925378;28;96498;-63
2023/01/14 09:42:36;;;;;;;84.00;55.03;;;15.10;82.10;;;;;;4920266;28;96296;-64
2023/01/14 09:45:04;;;;;;;86.45;54.15;;;15.10;81.40;;;;;;4922222;28;95927;-57
2023/01/14 09:47:30;;;;;;;88.63;55.13;;;15.10;81.40;;;;;;4929598;28;96681;-61
2023/01/14 09:49:56;;;;;;;80.43;53.13;;;15.20;81.40;;;;;;4912629;28;95416;-63
2023/01/14 09:52:47;;;;;;;93.53;55.22;;;15.20;81.00;;;;;;4907215;28;97412;-62
2023/01/14 09:55:25;;;;;;;85.70;53.07;;;15.20;80.70;;;;;;4931613;28;95300;-59
2023/01/14 09:57:57;;;;;;;84.05;53.95;;;15.20;82.20;;;;;;4920028;28;95557;-63
2023/01/14 10:00:44;;;;;;;80.60;53.10;;;15.40;83.20;;;;;;4917198;28;97425;-64
2023/01/14 10:03:24;;;;;;;85.97;53.60;;;15.30;82.30;;;;;;4920073;28;95772;-57
2023/01/14 10:06:03;;;;;;;85.63;54.20;;;15.30;81.60;;;;;;4911602;28;96774;-61
2023/01/14 10:08:35;;;;;;;86.30;53.67;;;15.30;81.10;;;;;;4926702;28;96111;-61
2023/01/14 10:11:04;;;;;;;82.80;53.45;;;15.20;81.30;;;;;;4921262;28;96690;-64
2023/01/14 10:13:35;;;;;;;82.40;52.55;;;15.20;81.60;;;;;;4925007;28;95334;-65
2023/01/14 10:16:22;;;;;;;83.50;52.28;;;15.20;81.70;;;;;;4924653;28;95853;-58
2023/01/14 10:19:10;;;;;;;82.15;52.25;;;15.20;81.70;;;;;;4925577;28;95163;-52
2023/01/14 10:21:50;;;;;;;82.57;52.80;;;15.20;81.80;;;;;;4925241;28;94761;-74
2023/01/14 10:24:19;;;;;;;82.22;52.78;;;15.20;81.80;;;;;;4925676;28;95333;-66
2023/01/14 10:26:48;;;;;;;78.43;52.30;;;15.20;81.60;;;;;;4926651;28;100434;-72
2023/01/14 10:29:21;;;;;;;79.43;52.55;;;15.20;81.70;;;;;;4922905;28;97569;-65
2023/01/14 10:31:58;;;;;;;76.45;51.40;;;15.20;81.30;;;;;;4928922;28;95206;-61
2023/01/14 10:34:45;;;;;;;79.53;52.00;;;15.20;81.60;;;;;;4923192;28;97007;-62
2023/01/14 10:37:11;;;;;;;74.53;51.33;;;15.20;81.50;;;;;;4927218;28;96688;-58
2023/01/14 10:39:50;;;;;;;79.20;51.55;;;15.20;81.20;;;;;;4923293;28;94961;-65
2023/01/14 10:42:24;;;;;;;83.45;51.40;;;15.20;81.10;;;;;;4919722;28;97451;-67
2023/01/14 10:44:51;;;;;;;77.38;51.67;;;15.20;80.80;;;;;;4922377;28;95136;-61
2023/01/14 10:47:18;;;;;;;74.15;50.95;;;15.30;81.00;;;;;;4915734;28;96365;-61
2023/01/14 10:50:06;;;;;;;78.18;51.47;;;15.30;80.80;;;;;;4928578;28;95327;-64
2023/01/14 10:52:33;;;;;;;87.53;51.92;;;15.30;81.20;;;;;;4920991;28;95452;-65
2023/01/14 10:54:58;;;;;;;76.53;51.63;;;15.40;81.20;;;;;;4917664;28;96145;-60
2023/01/14 10:57:25;;;;;;;76.15;51.83;;;15.40;81.20;;;;;;4924810;28;96135;-58
2023/01/14 10:59:54;;;;;;;76.47;51.25;;;15.40;81.20;;;;;;4921759;28;95634;-59
2023/01/14 11:02:59;;;;;;;73.13;51.17;;;15.40;80.90;;;;;;4923633;28;95215;-58
2023/01/14 11:05:41;;;;;;;73.40;50.83;;;15.40;80.60;;;;;;4908100;28;95874;-59
2023/01/14 11:08:42;;;;;;;73.90;50.95;;;15.40;80.30;;;;;;4907096;28;95630;-63
2023/01/14 11:11:33;;;;;;;74.00;51.13;;;15.40;80.50;;;;;;4927926;28;95179;-53
2023/01/14 11:14:27;;;;;;;73.70;51.10;;;15.40;80.70;;;;;;4920222;28;95046;-53
2023/01/14 11:16:53;;;;;;;74.18;50.63;;;15.50;80.30;;;;;;4924058;28;95095;-54
2023/01/14 11:19:20;;;;;;;76.40;51.05;;;15.50;80.30;;;;;;4919362;28;95623;-62
2023/01/14 11:21:54;;;;;;;72.50;50.63;;;15.50;80.40;;;;;;4928048;28;94821;-59
2023/01/14 11:24:43;;;;;;;75.20;50.95;;;15.50;80.40;;;;;;4911587;28;94885;-60
2023/01/14 11:27:21;;;;;;;73.75;50.60;;;15.50;80.60;;;;;;4927760;28;98163;-65
2023/01/14 11:29:50;;;;;;;73.35;50.55;;;15.50;80.60;;;;;;4931249;28;96026;-64
2023/01/14 11:32:24;;;;;;;73.15;50.65;;;15.60;80.80;;;;;;4931792;28;95858;-63
2023/01/14 11:34:59;;;;;;;73.50;50.83;;;15.60;80.80;;;;;;4934005;28;94708;-61
2023/01/14 11:37:34;;;;;;;73.78;50.65;;;15.60;81.00;;;;;;4927426;28;96147;-58
2023/01/14 11:40:01;;;;;;;76.60;50.55;;;15.60;80.90;;;;;;4923971;28;95324;-57
2023/01/14 11:42:26;;;;;;;73.15;50.85;;;15.60;80.30;;;;;;4930428;28;96510;-56
2023/01/14 11:45:11;;;;;;;71.68;50.72;;;15.50;79.80;;;;;;4929914;28;94498;-58
2023/01/14 11:47:57;;;;;;;71.30;50.17;;;15.50;79.50;;;;;;4928977;28;95239;-57
2023/01/14 11:50:26;;;;;;;72.13;50.05;;;15.50;79.30;;;;;;4920386;28;95049;-58
2023/01/14 11:53:04;;;;;;;72.22;50.03;;;15.50;79.00;;;;;;4930846;28;98984;-56
2023/01/14 11:55:37;;;;;;;72.57;49.80;;;15.50;78.80;;;;;;4933279;28;95333;-58
2023/01/14 11:58:30;;;;;;;70.18;50.03;;;15.50;78.80;;;;;;4923443;28;95399;-56
2023/01/14 12:01:32;;;;;;;70.57;50.15;;;15.50;78.50;;;;;;4930951;28;95098;-58
2023/01/14 12:04:10;;;;;;;70.38;49.70;;;15.50;78.30;;;;;;4927261;28;95678;-54
2023/01/14 12:06:59;;;;;;;70.00;49.45;;;15.50;77.90;;;;;;4919401;28;96783;-58
2023/01/14 12:09:32;;;;;;;71.15;49.78;;;15.50;77.90;;;;;;4928389;28;95428;-58
2023/01/14 12:12:11;;;;;;;69.65;49.70;;;15.50;77.60;;;;;;4930255;28;94018;-59
2023/01/14 12:17:37;;;;;;;71.18;50.10;;;15.50;77.40;;;;;;4937183;28;95409;-58
2023/01/14 12:20:06;;;;;;;70.68;49.65;;;15.50;77.20;;;;;;4943593;28;96107;-58
2023/01/14 12:22:47;;;;;;;70.75;49.92;;;15.40;77.10;;;;;;4929984;28;98842;-57
2023/01/14 12:25:28;;;;;;;69.85;49.55;;;15.50;77.00;;;;;;4938521;28;96861;-56
2023/01/14 12:28:02;;;;;;;71.05;49.60;;;15.50;77.00;;;;;;4925974;28;96785;-57
2023/01/14 12:30:36;;;;;;;69.90;49.30;;;15.50;76.90;;;;;;4931114;28;95761;-56
2023/01/14 12:33:08;;;;;;;69.63;49.55;;;15.50;76.70;;;;;;4934052;28;96543;-57
2023/01/14 12:35:37;;;;;;;;;;;15.50;76.50;;;;;;4932286;28;96910;-56
2023/01/14 12:45:41;;;;;;;68.63;49.22;;;15.50;76.50;;;;;;4926475;28;94655;-58
2023/01/14 12:46:28;;;;;;;70.13;49.22;;;15.40;76.20;;;;;;4933653;28;97334;-57
2023/01/14 12:48:56;;;;;;;68.95;49.50;;;15.50;76.20;;;;;;4922391;28;97709;-57
2023/01/14 12:51:27;;;;;;;69.78;49.55;;;15.40;76.20;;;;;;4927819;28;95459;-57
2023/01/14 12:53:59;;;;;;;69.57;49.10;;;15.40;76.00;;;;;;4931729;28;95559;-57
2023/01/14 12:56:36;;;;;;;69.45;49.33;;;15.50;75.90;;;;;;4925363;28;95656;-57
2023/01/14 12:59:45;;;;;;;69.00;49.30;;;15.40;75.90;;;;;;4910092;28;95054;-56
2023/01/14 13:02:25;;;;;;;69.85;49.42;;;15.50;75.90;;;;;;4928168;28;95240;-57
2023/01/14 13:04:59;;;;;;;69.05;49.55;;;15.50;75.80;;;;;;4930283;28;95793;-58
2023/01/14 13:07:51;;;;;;;68.55;49.03;;;15.40;75.70;;;;;;4924390;28;95284;-57
2023/01/14 13:11:07;;;;;;;68.95;49.15;;;15.40;75.60;;;;;;4929409;28;95090;-58
2023/01/14 13:13:34;;;;;;;68.03;48.92;;;15.40;75.60;;;;;;4909452;28;99023;-57
2023/01/14 13:16:02;;;;;;;68.97;49.25;;;15.40;75.60;;;;;;4918059;28;96612;-56
2023/01/14 13:18:33;;;;;;;68.55;49.50;;;15.40;75.50;;;;;;4917219;28;95018;-58
2023/01/14 13:20:59;;;;;;;;;;;15.40;75.40;;;;;;4936722;28;94782;-58
2023/01/14 13:23:37;;;;;;;68.10;48.83;;;15.40;75.40;;;;;;4927465;28;96167;-56
2023/01/14 13:26:29;;;;;;;68.50;49.33;;;15.40;75.30;;;;;;4944877;28;96633;-56